createdAt,value
2023-02-24T00:00:37.906Z,17.47
2023-02-24T00:03:06.802Z,16.77
2023-02-24T00:05:37.253Z,15.73
2023-02-24T00:08:05.350Z,16.63
2023-02-24T00:10:34.035Z,18.27
2023-02-24T00:13:03.498Z,17.83
2023-02-24T00:15:31.683Z,18.47
2023-02-24T00:17:59.786Z,17.50
2023-02-24T00:20:28.839Z,17.97
2023-02-24T00:22:57.620Z,16.83
2023-02-24T00:25:25.737Z,18.67
2023-02-24T00:27:55.692Z,17.20
2023-02-24T00:30:25.186Z,17.50
2023-02-24T00:32:53.353Z,18.70
2023-02-24T00:35:21.482Z,17.33
2023-02-24T00:37:51.315Z,19.57
2023-02-24T00:40:23.373Z,18.80
2023-02-24T00:42:51.876Z,19.20
2023-02-24T00:45:20.014Z,19.17
2023-02-24T00:47:49.611Z,19.37
2023-02-24T00:50:18.643Z,19.30
2023-02-24T00:52:46.835Z,19.50
2023-02-24T00:55:15.405Z,20.53
2023-02-24T00:57:44.923Z,20.80
2023-02-24T01:00:16.579Z,20.30
2023-02-24T01:02:46.411Z,19.10
2023-02-24T01:05:16.099Z,18.03
2023-02-24T01:07:44.316Z,19.70
2023-02-24T01:10:13.021Z,18.97
2023-02-24T01:12:49.663Z,19.57
2023-02-24T01:15:18.681Z,20.23
2023-02-24T01:17:46.944Z,20.73
2023-02-24T01:20:18.918Z,19.40
2023-02-24T01:22:48.465Z,19.00
2023-02-24T01:25:18.917Z,19.73
2023-02-24T01:27:47.188Z,18.43
2023-02-24T01:30:17.542Z,19.40
2023-02-24T01:32:46.650Z,19.70
2023-02-24T01:35:16.588Z,19.23
2023-02-24T01:37:45.370Z,18.57
2023-02-24T01:40:21.251Z,19.50
2023-02-24T01:42:50.479Z,19.00
2023-02-24T01:45:22.648Z,19.07
2023-02-24T01:47:51.552Z,18.00
2023-02-24T01:50:23.186Z,20.17
2023-02-24T01:52:56.066Z,18.57
2023-02-24T01:55:28.975Z,19.47
2023-02-24T01:57:57.212Z,18.23
2023-02-24T02:00:39.381Z,20.47
2023-02-24T02:03:15.623Z,18.30
2023-02-24T02:05:48.403Z,20.30
2023-02-24T02:08:17.437Z,19.73
2023-02-24T02:10:46.307Z,20.03
2023-02-24T02:13:20.381Z,19.13
2023-02-24T02:16:02.829Z,19.90
2023-02-24T02:18:40.985Z,19.40
2023-02-24T02:21:45.397Z,20.37
2023-02-24T02:24:27.026Z,20.07
2023-02-24T02:27:12.305Z,21.27
2023-02-24T02:30:19.961Z,20.13
2023-02-24T02:33:44.712Z,19.40
2023-02-24T02:36:19.268Z,18.83
2023-02-24T02:38:54.056Z,19.00
2023-02-24T02:41:25.704Z,18.80
2023-02-24T02:43:59.579Z,18.70
2023-02-24T02:46:34.691Z,19.90
2023-02-24T02:49:07.945Z,20.23
2023-02-24T02:51:41.370Z,19.03
2023-02-24T02:54:14.309Z,19.23
2023-02-24T02:56:45.410Z,19.13
2023-02-24T02:59:14.760Z,20.23
2023-02-24T03:01:43.838Z,20.30
2023-02-24T03:04:13.874Z,21.23
2023-02-24T03:06:44.774Z,18.53
2023-02-24T03:09:17.909Z,20.33
2023-02-24T03:11:48.186Z,19.43
2023-02-24T03:14:17.828Z,20.27
2023-02-24T03:16:46.995Z,20.67
2023-02-24T03:19:15.241Z,20.20
2023-02-24T03:21:46.228Z,20.80
2023-02-24T03:24:15.537Z,20.33
2023-02-24T03:26:50.095Z,20.03
2023-02-24T03:29:23.868Z,20.20
2023-02-24T03:31:54.597Z,20.43
2023-02-24T03:34:24.934Z,19.77
2023-02-24T03:36:55.613Z,20.00
2023-02-24T03:39:24.093Z,20.27
2023-02-24T03:42:06.295Z,19.77
2023-02-24T03:44:36.076Z,20.33
2023-02-24T03:47:04.252Z,20.37
2023-02-24T03:49:32.478Z,18.33
2023-02-24T03:52:10.811Z,20.40
2023-02-24T03:54:53.213Z,19.53
2023-02-24T03:57:27.768Z,20.00
2023-02-24T04:00:21.016Z,20.00
2023-02-24T04:02:51.512Z,18.13
2023-02-24T04:05:22.638Z,18.27
2023-02-24T04:08:01.402Z,20.20
2023-02-24T04:10:34.696Z,19.13
2023-02-24T04:13:10.306Z,17.53
2023-02-24T04:15:43.602Z,18.03
2023-02-24T04:18:16.722Z,18.47
2023-02-24T04:20:49.428Z,18.83
2023-02-24T04:23:22.455Z,19.03
2023-02-24T04:25:56.209Z,18.57
2023-02-24T04:28:25.452Z,17.97
2023-02-24T04:30:58.614Z,18.43
2023-02-24T04:33:27.691Z,18.20
2023-02-24T04:35:55.952Z,19.53
2023-02-24T04:38:26.044Z,18.20
2023-02-24T04:40:55.204Z,17.50
2023-02-24T04:43:23.306Z,18.07
2023-02-24T04:45:52.641Z,18.10
2023-02-24T04:48:20.783Z,17.40
2023-02-24T04:50:54.977Z,17.70
2023-02-24T04:53:27.220Z,17.97
2023-02-24T04:55:56.296Z,18.47
2023-02-24T04:58:27.835Z,19.20
2023-02-24T05:00:56.412Z,17.00
2023-02-24T05:03:29.849Z,17.60
2023-02-24T05:06:00.085Z,18.03
2023-02-24T05:08:30.809Z,18.00
2023-02-24T05:11:00.963Z,18.30
2023-02-24T05:13:31.824Z,18.93
2023-02-24T05:16:01.357Z,17.70
2023-02-24T05:18:35.820Z,19.07
2023-02-24T05:21:24.562Z,18.37
2023-02-24T05:23:54.809Z,17.13
2023-02-24T05:26:26.018Z,18.10
2023-02-24T05:28:56.513Z,18.90
2023-02-24T05:31:27.423Z,17.37
2023-02-24T05:33:57.626Z,17.83
2023-02-24T05:36:26.890Z,18.00
2023-02-24T05:38:59.346Z,18.20
2023-02-24T05:41:32.474Z,17.63
2023-02-24T05:44:04.855Z,19.07
2023-02-24T05:46:34.696Z,18.60
2023-02-24T05:49:08.590Z,18.57
2023-02-24T05:51:39.096Z,18.37
2023-02-24T05:54:10.737Z,18.73
2023-02-24T05:56:43.680Z,18.77
2023-02-24T05:59:18.089Z,18.90
2023-02-24T06:01:46.574Z,17.57
2023-02-24T06:04:21.049Z,16.97
2023-02-24T06:06:52.392Z,17.17
2023-02-24T06:09:23.244Z,18.70
2023-02-24T06:11:51.725Z,18.27
2023-02-24T06:14:21.411Z,18.93
2023-02-24T06:16:50.311Z,18.27
2023-02-24T06:19:18.459Z,17.50
2023-02-24T06:21:46.544Z,18.43
2023-02-24T06:24:15.673Z,16.97
2023-02-24T06:26:45.325Z,18.27
2023-02-24T06:29:14.887Z,17.97
2023-02-24T06:31:43.262Z,18.90
2023-02-24T06:34:11.524Z,18.27
2023-02-24T06:36:39.751Z,19.80
2023-02-24T06:39:08.324Z,17.73
2023-02-24T06:41:37.833Z,19.83
2023-02-24T06:44:07.276Z,18.27
2023-02-24T06:46:35.472Z,20.23
2023-02-24T06:49:03.913Z,20.03
2023-02-24T06:51:32.092Z,20.40
2023-02-24T06:54:00.698Z,19.50
2023-02-24T06:56:30.352Z,20.07
2023-02-24T06:59:01.154Z,19.70
2023-02-24T07:01:30.651Z,18.93
2023-02-24T07:04:18.709Z,18.20
2023-02-24T07:06:49.391Z,19.87
2023-02-24T07:09:18.718Z,19.73
2023-02-24T07:11:48.549Z,19.50
2023-02-24T07:14:16.660Z,19.97
2023-02-24T07:16:46.167Z,19.67
2023-02-24T07:19:15.608Z,20.63
2023-02-24T07:21:49.871Z,19.50
2023-02-24T07:24:24.823Z,20.53
2023-02-24T07:26:57.418Z,19.97
2023-02-24T07:29:26.436Z,20.30
2023-02-24T07:31:56.542Z,20.30
2023-02-24T07:34:25.561Z,19.90
2023-02-24T07:36:54.535Z,19.13
2023-02-24T07:39:23.945Z,20.07
2023-02-24T07:42:00.994Z,20.03
2023-02-24T07:44:30.148Z,20.20
2023-02-24T07:47:00.174Z,21.10
2023-02-24T07:49:30.171Z,21.13
2023-02-24T07:51:58.610Z,20.73
2023-02-24T07:54:29.915Z,20.60
2023-02-24T07:56:59.283Z,22.13
2023-02-24T07:59:29.927Z,20.50
2023-02-24T08:02:00.448Z,20.67
2023-02-24T08:04:30.116Z,21.23
2023-02-24T08:07:02.440Z,20.33
2023-02-24T08:10:03.779Z,20.37
2023-02-24T08:12:35.400Z,21.20
2023-02-24T08:15:17.119Z,22.57
2023-02-24T08:17:47.788Z,21.47
2023-02-24T08:20:23.595Z,20.87
2023-02-24T08:22:53.008Z,22.40
2023-02-24T08:25:22.646Z,21.37
2023-02-24T08:28:07.371Z,20.97
2023-02-24T08:30:39.769Z,22.13
2023-02-24T08:33:11.116Z,21.67
2023-02-24T08:35:44.630Z,22.03
2023-02-24T08:38:15.938Z,21.10
2023-02-24T08:40:54.406Z,20.80
2023-02-24T08:43:33.078Z,20.73
2023-02-24T08:46:05.342Z,20.60
2023-02-24T08:48:38.850Z,20.63
2023-02-24T08:51:11.057Z,20.37
2023-02-24T08:53:40.889Z,21.40
2023-02-24T08:56:11.420Z,22.20
2023-02-24T08:58:46.831Z,21.07
2023-02-24T09:01:24.006Z,22.07
2023-02-24T09:03:55.965Z,20.30
2023-02-24T09:06:28.041Z,21.83
2023-02-24T09:09:11.363Z,22.27
2023-02-24T09:11:43.996Z,21.33
2023-02-24T09:14:25.931Z,19.40
2023-02-24T09:17:05.726Z,21.87
2023-02-24T09:20:02.321Z,24.27
2023-02-24T09:22:31.732Z,28.60
2023-02-24T09:25:21.657Z,23.33
2023-02-24T09:27:55.020Z,22.33
2023-02-24T09:30:38.656Z,22.00
2023-02-24T09:33:18.498Z,22.30
2023-02-24T09:35:50.070Z,21.97
2023-02-24T09:38:19.687Z,19.70
2023-02-24T09:40:52.185Z,22.03
2023-02-24T09:43:24.330Z,20.87
2023-02-24T09:46:00.640Z,20.00
2023-02-24T09:48:43.821Z,22.37
2023-02-24T09:51:22.697Z,20.77
2023-02-24T09:53:53.624Z,20.50
2023-02-24T09:56:28.387Z,27.50
2023-02-24T10:01:47.608Z,21.43
2023-02-24T10:04:36.205Z,22.33
2023-02-24T10:07:07.863Z,21.27
2023-02-24T10:09:38.039Z,21.43
2023-02-24T10:12:11.741Z,22.10
2023-02-24T10:14:50.786Z,20.80
2023-02-24T10:17:30.647Z,20.20
2023-02-24T10:20:02.336Z,20.20
2023-02-24T10:22:50.668Z,20.20
2023-02-24T10:25:31.301Z,22.73
2023-02-24T10:28:04.924Z,21.53
2023-02-24T10:30:43.996Z,21.90
2023-02-24T10:33:26.308Z,21.70
2023-02-24T10:36:09.111Z,22.30
2023-02-24T10:38:40.764Z,22.03
2023-02-24T10:41:10.488Z,29.00
2023-02-24T10:43:45.512Z,22.10
2023-02-24T10:46:40.197Z,22.63
2023-02-24T10:49:16.178Z,20.37
2023-02-24T10:51:48.970Z,21.63
2023-02-24T10:54:34.301Z,20.60
2023-02-24T10:57:15.610Z,21.80
2023-02-24T11:00:19.340Z,20.57
2023-02-24T11:03:10.197Z,19.93
2023-02-24T11:05:44.105Z,20.60
2023-02-24T11:08:36.277Z,21.00
2023-02-24T11:11:20.251Z,20.03
2023-02-24T11:14:09.313Z,19.83
2023-02-24T11:17:05.879Z,20.13
2023-02-24T11:19:37.110Z,21.43
2023-02-24T11:22:08.730Z,21.63
2023-02-24T11:24:38.924Z,19.33
2023-02-24T11:27:13.835Z,19.77
2023-02-24T11:29:54.222Z,22.10
2023-02-24T11:32:39.541Z,18.90
2023-02-24T11:35:12.957Z,19.97
2023-02-24T11:37:43.382Z,18.93
2023-02-24T11:40:17.366Z,18.97
2023-02-24T11:42:49.804Z,18.53
2023-02-24T11:45:29.342Z,18.73
2023-02-24T11:48:00.541Z,17.83
2023-02-24T11:50:43.742Z,19.60
2023-02-24T11:53:28.362Z,18.70
2023-02-24T11:56:01.287Z,18.17
2023-02-24T11:58:36.855Z,18.20
2023-02-24T12:01:14.422Z,16.87
2023-02-24T12:03:50.583Z,16.73
2023-02-24T12:06:24.185Z,18.30
2023-02-24T12:08:54.897Z,17.77
2023-02-24T12:11:33.280Z,17.70
2023-02-24T12:14:09.240Z,18.80
2023-02-24T12:16:40.491Z,19.43
2023-02-24T12:19:18.474Z,19.23
2023-02-24T12:21:49.496Z,19.13
2023-02-24T12:24:17.951Z,18.37
2023-02-24T12:26:55.773Z,19.13
2023-02-24T12:29:55.149Z,20.10
2023-02-24T12:32:31.484Z,19.43
2023-02-24T12:35:07.697Z,19.77
2023-02-24T12:37:51.725Z,18.10
2023-02-24T12:40:31.037Z,19.47
2023-02-24T12:43:07.327Z,19.73
2023-02-24T12:45:44.239Z,18.93
2023-02-24T12:48:23.478Z,19.37
2023-02-24T12:50:55.019Z,17.93
2023-02-24T12:53:25.129Z,18.47
2023-02-24T12:56:00.137Z,19.23
2023-02-24T12:58:29.897Z,18.90
2023-02-24T13:01:14.337Z,19.27
2023-02-24T13:04:08.732Z,17.13
2023-02-24T13:06:48.580Z,18.07
2023-02-24T13:09:21.778Z,17.73
2023-02-24T13:11:53.693Z,16.43
2023-02-24T13:14:25.211Z,16.07
2023-02-24T13:17:17.359Z,16.63
2023-02-24T13:19:45.830Z,15.23
2023-02-24T13:22:23.426Z,16.70
2023-02-24T13:25:11.801Z,14.87
2023-02-24T13:27:41.928Z,15.40
2023-02-24T13:30:44.477Z,14.70
2023-02-24T13:33:26.082Z,15.03
2023-02-24T13:36:15.903Z,13.27
2023-02-24T13:38:45.241Z,14.30
2023-02-24T13:41:40.602Z,13.97
2023-02-24T13:44:28.396Z,12.97
2023-02-24T13:47:36.317Z,12.47
2023-02-24T13:50:19.882Z,11.80
2023-02-24T13:52:59.498Z,12.13
2023-02-24T13:55:43.762Z,12.80
2023-02-24T13:58:50.245Z,11.73
2023-02-24T14:01:18.699Z,11.50
2023-02-24T14:03:50.388Z,10.87
2023-02-24T14:06:25.890Z,10.83
2023-02-24T14:08:55.738Z,9.97
2023-02-24T14:11:26.905Z,10.30
2023-02-24T14:13:56.127Z,11.00
2023-02-24T14:16:26.159Z,10.27
2023-02-24T14:18:55.797Z,9.97
2023-02-24T14:21:28.247Z,10.03
2023-02-24T14:23:58.237Z,9.47
2023-02-24T14:26:26.774Z,9.53
2023-02-24T14:28:57.527Z,8.17
2023-02-24T14:31:26.019Z,8.77
2023-02-24T14:34:00.324Z,8.53
2023-02-24T14:36:32.842Z,8.63
2023-02-24T14:39:05.137Z,8.67
2023-02-24T14:41:34.228Z,7.67
2023-02-24T14:44:10.467Z,8.50
2023-02-24T14:46:48.736Z,7.40
2023-02-24T14:49:24.203Z,8.00
2023-02-24T14:51:57.405Z,7.77
2023-02-24T14:54:44.854Z,7.00
2023-02-24T14:57:14.374Z,6.40
2023-02-24T14:59:43.217Z,6.40
2023-02-24T15:02:18.536Z,6.47
2023-02-24T15:04:47.586Z,6.20
2023-02-24T15:07:20.064Z,6.20
2023-02-24T15:09:48.965Z,6.17
2023-02-24T15:12:24.747Z,6.27
2023-02-24T15:14:55.241Z,6.67
2023-02-24T15:17:23.725Z,5.80
2023-02-24T15:19:54.591Z,5.23
2023-02-24T15:22:27.092Z,6.20
2023-02-24T15:24:56.956Z,5.80
2023-02-24T15:27:27.754Z,6.30
2023-02-24T15:30:02.176Z,5.80
2023-02-24T15:32:33.655Z,6.07
2023-02-24T15:35:02.033Z,6.07
2023-02-24T15:37:34.597Z,6.50
2023-02-24T15:40:09.266Z,5.50
2023-02-24T15:42:37.528Z,5.97
2023-02-24T15:45:07.163Z,5.63
2023-02-24T15:47:43.195Z,5.97
2023-02-24T15:50:12.500Z,6.03
2023-02-24T15:52:42.070Z,5.37
2023-02-24T15:55:12.810Z,5.70
2023-02-24T15:57:40.904Z,5.83
2023-02-24T16:00:13.456Z,5.07
2023-02-24T16:02:42.028Z,5.50
2023-02-24T16:05:13.893Z,6.00
2023-02-24T16:07:44.374Z,5.40
2023-02-24T16:10:19.330Z,5.43
2023-02-24T16:12:50.860Z,5.93
2023-02-24T16:15:23.955Z,5.77
2023-02-24T16:17:52.420Z,5.17
2023-02-24T16:20:27.354Z,6.07
2023-02-24T16:23:01.170Z,5.83
2023-02-24T16:25:30.597Z,6.43
2023-02-24T16:27:58.711Z,6.43
2023-02-24T16:30:30.222Z,6.67
2023-02-24T16:32:58.739Z,6.97
2023-02-24T16:35:27.013Z,6.43
2023-02-24T16:37:55.392Z,7.10
2023-02-24T16:40:27.918Z,7.63
2023-02-24T16:42:56.086Z,6.57
2023-02-24T16:45:26.792Z,6.73
2023-02-24T16:47:54.921Z,6.87
2023-02-24T16:50:24.755Z,8.03
2023-02-24T16:52:52.893Z,7.50
2023-02-24T16:55:20.959Z,7.50
2023-02-24T16:57:50.381Z,7.33
2023-02-24T17:00:23.589Z,8.07
2023-02-24T17:02:52.273Z,7.80
2023-02-24T17:05:22.041Z,7.90
2023-02-24T17:07:50.863Z,8.07
2023-02-24T17:10:19.899Z,7.17
2023-02-24T17:12:48.022Z,7.63
2023-02-24T17:15:19.469Z,7.93
2023-02-24T17:17:48.027Z,7.63
2023-02-24T17:20:17.376Z,7.83
2023-02-24T17:22:45.712Z,6.43
2023-02-24T17:25:15.489Z,7.00
2023-02-24T17:27:43.744Z,7.07
2023-02-24T17:30:14.125Z,5.00
2023-02-24T17:32:43.607Z,4.93
2023-02-24T17:35:11.723Z,4.23
2023-02-24T17:37:39.876Z,4.37
2023-02-24T17:40:08.920Z,4.30
2023-02-24T17:42:37.053Z,4.30
2023-02-24T17:45:05.875Z,4.23
2023-02-24T17:47:34.537Z,4.23
2023-02-24T17:50:04.617Z,3.87
2023-02-24T17:52:33.059Z,4.37
2023-02-24T17:55:01.220Z,3.83
2023-02-24T17:57:29.588Z,3.60
2023-02-24T17:59:58.086Z,4.43
2023-02-24T18:02:26.306Z,4.70
2023-02-24T18:04:54.456Z,4.33
2023-02-24T18:07:25.102Z,4.03
2023-02-24T18:09:53.297Z,4.60
2023-02-24T18:12:21.705Z,4.50
2023-02-24T18:14:59.195Z,3.60
2023-02-24T18:17:34.330Z,3.10
2023-02-24T18:20:02.481Z,3.40
2023-02-24T18:22:31.968Z,2.90
2023-02-24T18:25:00.898Z,3.17
2023-02-24T18:27:29.279Z,3.20
2023-02-24T18:29:57.457Z,3.07
2023-02-24T18:32:25.760Z,2.90
2023-02-24T18:34:54.014Z,3.00
2023-02-24T18:37:22.398Z,3.70
2023-02-24T18:39:53.281Z,3.33
2023-02-24T18:42:21.465Z,3.17
2023-02-24T18:44:49.769Z,3.83
2023-02-24T18:47:17.924Z,3.17
2023-02-24T18:49:46.100Z,3.57
2023-02-24T18:52:14.536Z,3.33
2023-02-24T18:54:42.678Z,3.50
2023-02-24T18:57:12.187Z,4.03
2023-02-24T18:59:40.323Z,4.10
2023-02-24T19:02:09.853Z,5.00
2023-02-24T19:04:38.045Z,4.73
2023-02-24T19:07:07.446Z,7.13
2023-02-24T19:09:35.546Z,6.10
2023-02-24T19:12:03.659Z,4.40
2023-02-24T19:14:33.182Z,4.30
2023-02-24T19:17:02.095Z,3.93
2023-02-24T19:19:30.309Z,4.27
2023-02-24T19:21:58.838Z,2.97
2023-02-24T19:24:27.153Z,2.80
2023-02-24T19:26:55.293Z,2.53
2023-02-24T19:29:23.492Z,3.40
2023-02-24T19:31:54.804Z,3.73
2023-02-24T19:34:23.061Z,3.83
2023-02-24T19:36:51.245Z,4.03
2023-02-24T19:39:19.476Z,3.60
2023-02-24T19:41:49.641Z,3.47
2023-02-24T19:44:18.150Z,3.60
2023-02-24T19:46:46.319Z,5.73
2023-02-24T19:49:15.882Z,5.33
2023-02-24T19:51:46.611Z,6.43
2023-02-24T19:54:16.819Z,4.17
2023-02-24T19:56:45.060Z,4.30
2023-02-24T19:59:13.407Z,5.67
2023-02-24T20:01:41.703Z,6.00
2023-02-24T20:04:10.086Z,8.63
2023-02-24T20:06:40.992Z,9.60
2023-02-24T20:09:10.348Z,7.10
2023-02-24T20:11:39.646Z,8.50
2023-02-24T20:14:08.152Z,9.37
2023-02-24T20:16:37.480Z,5.90
2023-02-24T20:19:06.933Z,4.60
2023-02-24T20:21:35.254Z,4.87
2023-02-24T20:24:06.341Z,4.63
2023-02-24T20:26:34.610Z,7.60
2023-02-24T20:29:02.894Z,8.60
2023-02-24T20:31:31.530Z,6.43
2023-02-24T20:33:59.732Z,7.03
2023-02-24T20:36:29.167Z,4.57
2023-02-24T20:38:59.424Z,4.97
2023-02-24T20:41:29.293Z,4.60
2023-02-24T20:43:57.577Z,6.00
2023-02-24T20:46:27.617Z,5.30
2023-02-24T20:48:57.529Z,8.63
2023-02-24T20:51:26.404Z,5.97
2023-02-24T20:53:58.069Z,4.70
2023-02-24T20:56:29.019Z,4.43
2023-02-24T20:59:00.796Z,6.00
2023-02-24T21:01:29.357Z,6.50
2023-02-24T21:03:57.649Z,6.73
2023-02-24T21:06:27.977Z,5.93
2023-02-24T21:08:56.427Z,5.40
2023-02-24T21:11:24.650Z,5.60
2023-02-24T21:13:54.267Z,4.90
2023-02-24T21:16:23.037Z,5.40
2023-02-24T21:18:53.055Z,5.40
2023-02-24T21:21:21.434Z,5.40
2023-02-24T21:23:50.318Z,6.67
2023-02-24T21:26:18.761Z,8.30
2023-02-24T21:28:47.404Z,5.67
2023-02-24T21:31:19.055Z,4.97
2023-02-24T21:33:51.699Z,4.70
2023-02-24T21:36:21.126Z,5.20
2023-02-24T21:38:49.675Z,5.33
2023-02-24T21:41:19.285Z,5.20
2023-02-24T21:43:47.836Z,5.37
2023-02-24T21:46:18.044Z,5.07
2023-02-24T21:48:47.135Z,5.77
2023-02-24T21:51:15.393Z,5.53
2023-02-24T21:53:47.827Z,5.33
2023-02-24T21:56:17.635Z,5.60
2023-02-24T21:58:46.893Z,5.20
2023-02-24T22:01:18.152Z,5.47
2023-02-24T22:03:46.494Z,4.83
2023-02-24T22:06:16.583Z,5.00
2023-02-24T22:08:45.417Z,5.00
2023-02-24T22:11:14.931Z,5.43
2023-02-24T22:13:43.445Z,5.23
2023-02-24T22:16:13.354Z,5.90
2023-02-24T22:18:43.475Z,5.47
2023-02-24T22:21:13.395Z,5.30
2023-02-24T22:23:41.580Z,5.50
2023-02-24T22:26:11.259Z,5.37
2023-02-24T22:28:40.966Z,6.40
2023-02-24T22:31:10.374Z,5.27
2023-02-24T22:33:41.152Z,5.53
2023-02-24T22:36:13.040Z,5.70
2023-02-24T22:38:41.938Z,5.40
2023-02-24T22:41:12.264Z,5.17
2023-02-24T22:43:40.506Z,4.67
2023-02-24T22:46:09.942Z,5.63
2023-02-24T22:48:38.276Z,4.97
2023-02-24T22:51:08.041Z,5.10
2023-02-24T22:53:40.072Z,5.43
2023-02-24T22:56:09.125Z,4.80
2023-02-24T22:58:37.793Z,5.47
2023-02-24T23:01:10.483Z,5.00
2023-02-24T23:03:40.023Z,5.13
2023-02-24T23:06:09.658Z,5.20
2023-02-24T23:08:39.551Z,5.00
2023-02-24T23:11:11.082Z,5.33
2023-02-24T23:13:39.560Z,5.50
2023-02-24T23:16:10.282Z,5.50
2023-02-24T23:18:38.793Z,5.13
2023-02-24T23:21:09.317Z,4.80
2023-02-24T23:23:38.949Z,4.40
2023-02-24T23:26:07.769Z,4.43
2023-02-24T23:28:36.105Z,4.07
2023-02-24T23:31:04.233Z,3.90
2023-02-24T23:33:32.582Z,4.20
2023-02-24T23:36:05.026Z,4.53
2023-02-24T23:38:33.296Z,4.03
2023-02-24T23:41:08.200Z,4.03
2023-02-24T23:43:36.375Z,4.40
2023-02-24T23:46:04.925Z,4.30
2023-02-24T23:48:33.201Z,4.40
2023-02-24T23:51:03.429Z,4.83
2023-02-24T23:53:31.874Z,4.80
2023-02-24T23:56:00.034Z,4.30
2023-02-24T23:58:29.532Z,4.50
